createdAt,value
2019-03-19T00:01:39.945Z,101097.45
2019-03-19T00:04:06.748Z,101096.26
2019-03-19T00:06:33.518Z,101098.19
2019-03-19T00:09:00.324Z,101094.98
2019-03-19T00:11:27.104Z,101093.34
2019-03-19T00:13:53.873Z,101094.99
2019-03-19T00:16:20.666Z,101096.46
2019-03-19T00:18:47.425Z,101101.50
2019-03-19T00:21:14.217Z,101104.84
2019-03-19T00:23:40.992Z,101106.69
2019-03-19T00:26:07.788Z,101102.28
2019-03-19T00:28:34.552Z,101109.83
2019-03-19T00:31:01.344Z,101110.63
2019-03-19T00:33:28.121Z,101106.84
2019-03-19T00:35:54.924Z,101108.50
2019-03-19T00:38:21.742Z,101106.52
2019-03-19T00:40:48.523Z,101106.09
2019-03-19T00:43:15.305Z,101111.42
2019-03-19T00:45:42.249Z,101106.30
2019-03-19T00:48:09.052Z,101112.81
2019-03-19T00:50:35.873Z,101108.81
2019-03-19T00:53:02.640Z,101109.88
2019-03-19T00:55:39.991Z,101102.19
2019-03-19T00:57:56.216Z,101104.77
2019-03-19T01:00:22.988Z,101103.02
2019-03-19T01:02:49.772Z,101106.38
2019-03-19T01:05:16.582Z,101104.17
2019-03-19T01:07:43.345Z,101097.54
2019-03-19T01:10:10.191Z,101104.30
2019-03-19T01:12:36.984Z,101103.84
2019-03-19T01:15:04.910Z,101107.44
2019-03-19T01:17:31.708Z,101101.55
2019-03-19T01:19:58.464Z,101105.72
2019-03-19T01:22:25.247Z,101106.18
2019-03-19T01:24:52.008Z,101104.53
2019-03-19T01:27:18.809Z,101101.59
2019-03-19T01:29:45.572Z,101103.97
2019-03-19T01:32:12.362Z,101099.80
2019-03-19T01:34:39.143Z,101094.10
2019-03-19T01:37:05.926Z,101098.51
2019-03-19T01:39:32.721Z,101094.19
2019-03-19T01:41:59.497Z,101093.99
2019-03-19T01:44:26.274Z,101101.27
2019-03-19T01:46:53.052Z,101104.30
2019-03-19T01:49:19.880Z,101103.23
2019-03-19T01:51:46.684Z,101096.67
2019-03-19T01:54:13.452Z,101094.16
2019-03-19T01:56:40.273Z,101101.05
2019-03-19T01:59:07.046Z,101104.13
2019-03-19T02:01:33.844Z,101109.41
2019-03-19T02:04:00.612Z,101097.40
2019-03-19T02:06:27.404Z,101105.06
2019-03-19T02:08:54.175Z,101102.56
2019-03-19T02:11:20.970Z,101097.78
2019-03-19T02:13:47.728Z,101106.24
2019-03-19T02:16:14.527Z,101105.23
2019-03-19T02:18:41.297Z,101108.97
2019-03-19T02:21:08.093Z,101114.07
2019-03-19T02:23:34.872Z,101117.02
2019-03-19T02:26:01.645Z,101115.08
2019-03-19T02:28:28.433Z,101123.31
2019-03-19T02:30:55.222Z,101119.36
2019-03-19T02:33:22.087Z,101116.28
2019-03-19T02:35:48.991Z,101113.86
2019-03-19T02:38:15.721Z,101112.09
2019-03-19T02:40:42.524Z,101119.53
2019-03-19T02:43:09.304Z,101121.17
2019-03-19T02:45:36.074Z,101119.17
2019-03-19T02:48:02.900Z,101121.59
2019-03-19T02:50:29.632Z,101126.32
2019-03-19T02:52:56.430Z,101129.88
2019-03-19T02:55:23.202Z,101128.74
2019-03-19T02:57:50.007Z,101134.53
2019-03-19T03:00:16.795Z,101137.69
2019-03-19T03:02:43.600Z,101140.59
2019-03-19T03:05:10.983Z,101147.41
2019-03-19T03:07:37.750Z,101148.38
2019-03-19T03:10:04.762Z,101153.14
2019-03-19T03:12:31.560Z,101157.45
2019-03-19T03:14:58.333Z,101162.23
2019-03-19T03:17:25.158Z,101160.38
2019-03-19T03:19:51.921Z,101166.27
2019-03-19T03:22:18.706Z,101165.61
2019-03-19T03:24:45.475Z,101165.08
2019-03-19T03:27:12.273Z,101162.45
2019-03-19T03:29:39.024Z,101168.64
2019-03-19T03:32:05.849Z,101175.44
2019-03-19T03:34:32.616Z,101177.02
2019-03-19T03:36:59.378Z,101180.08
2019-03-19T03:39:26.147Z,101171.99
2019-03-19T03:41:52.966Z,101178.98
2019-03-19T03:44:20.308Z,101185.89
2019-03-19T03:46:47.105Z,101187.00
2019-03-19T03:49:13.873Z,101189.27
2019-03-19T03:51:40.662Z,101191.26
2019-03-19T03:54:07.460Z,101188.23
2019-03-19T03:56:34.355Z,101195.48
2019-03-19T03:59:01.497Z,101206.55
2019-03-19T04:01:27.940Z,101209.45
2019-03-19T04:03:54.737Z,101212.00
2019-03-19T04:06:21.610Z,101209.87
2019-03-19T04:08:48.406Z,101210.56
2019-03-19T04:11:15.131Z,101218.42
2019-03-19T04:13:41.890Z,101218.95
2019-03-19T04:16:08.618Z,101221.85
2019-03-19T04:18:35.359Z,101230.16
2019-03-19T04:21:02.097Z,101221.97
2019-03-19T04:23:28.887Z,101226.50
2019-03-19T04:25:55.605Z,101236.65
2019-03-19T04:28:22.466Z,101240.87
2019-03-19T04:30:49.190Z,101250.08
2019-03-19T04:33:15.927Z,101248.50
2019-03-19T04:35:42.673Z,101249.50
2019-03-19T04:38:09.444Z,101256.60
2019-03-19T04:40:36.166Z,101257.45
2019-03-19T04:43:02.907Z,101261.16
2019-03-19T04:45:29.651Z,101266.98
2019-03-19T04:47:56.386Z,101272.05
2019-03-19T04:50:23.134Z,101273.55
2019-03-19T04:52:49.866Z,101269.72
2019-03-19T04:55:16.622Z,101266.66
2019-03-19T04:57:43.369Z,101274.33
2019-03-19T05:00:10.175Z,101275.92
2019-03-19T05:02:36.889Z,101276.00
2019-03-19T05:05:04.294Z,101274.19
2019-03-19T05:07:31.159Z,101282.11
2019-03-19T05:09:57.905Z,101289.16
2019-03-19T05:12:24.655Z,101290.66
2019-03-19T05:14:51.402Z,101287.53
2019-03-19T05:17:18.134Z,101288.52
2019-03-19T05:19:44.883Z,101292.67
2019-03-19T05:22:11.646Z,101293.51
2019-03-19T05:24:38.381Z,101295.52
2019-03-19T05:27:05.110Z,101293.36
2019-03-19T05:29:31.841Z,101295.14
2019-03-19T05:31:58.554Z,101300.12
2019-03-19T05:34:25.290Z,101304.97
2019-03-19T05:36:52.010Z,101304.55
2019-03-19T05:39:18.751Z,101308.79
2019-03-19T05:41:45.478Z,101308.03
2019-03-19T05:44:12.192Z,101314.19
2019-03-19T05:46:38.945Z,101319.45
2019-03-19T05:49:05.773Z,101325.72
2019-03-19T05:51:32.513Z,101325.22
2019-03-19T05:53:59.348Z,101331.65
2019-03-19T05:56:26.234Z,101333.34
2019-03-19T05:58:52.967Z,101336.02
2019-03-19T06:01:19.715Z,101334.35
2019-03-19T06:03:46.431Z,101339.02
2019-03-19T06:06:13.230Z,101345.06
2019-03-19T06:08:39.989Z,101347.44
2019-03-19T06:11:06.822Z,101349.02
2019-03-19T06:13:33.538Z,101351.14
2019-03-19T06:16:00.283Z,101358.13
2019-03-19T06:18:35.142Z,101355.00
2019-03-19T06:20:53.738Z,101354.19
2019-03-19T06:23:20.610Z,101359.40
2019-03-19T06:25:47.349Z,101357.50
2019-03-19T06:28:14.061Z,101363.57
2019-03-19T06:30:40.827Z,101364.48
2019-03-19T06:33:07.583Z,101361.83
2019-03-19T06:35:34.293Z,101366.74
2019-03-19T06:38:01.020Z,101367.59
2019-03-19T06:40:27.778Z,101373.58
2019-03-19T06:42:54.506Z,101374.40
2019-03-19T06:45:23.150Z,101366.14
2019-03-19T06:47:47.977Z,101370.52
2019-03-19T06:50:14.759Z,101379.03
2019-03-19T06:52:41.535Z,101382.42
2019-03-19T06:55:09.172Z,101381.05
2019-03-19T06:57:39.400Z,101376.72
2019-03-19T07:00:03.903Z,101373.16
2019-03-19T07:02:30.647Z,101379.37
2019-03-19T07:04:57.412Z,101383.02
2019-03-19T07:07:24.143Z,101391.20
2019-03-19T07:09:50.880Z,101389.83
2019-03-19T07:12:17.632Z,101395.23
2019-03-19T07:14:44.364Z,101399.70
2019-03-19T07:17:11.100Z,101399.55
2019-03-19T07:19:37.826Z,101409.75
2019-03-19T07:22:04.561Z,101413.99
2019-03-19T07:24:31.282Z,101416.24
2019-03-19T07:26:58.033Z,101421.56
2019-03-19T07:29:24.773Z,101418.36
2019-03-19T07:31:51.533Z,101414.20
2019-03-19T07:34:18.258Z,101428.22
2019-03-19T07:36:45.006Z,101425.17
2019-03-19T07:39:11.742Z,101430.16
2019-03-19T07:41:38.490Z,101432.59
2019-03-19T07:44:05.218Z,101426.41
2019-03-19T07:46:31.962Z,101423.83
2019-03-19T07:48:58.694Z,101418.98
2019-03-19T07:51:25.439Z,101425.22
2019-03-19T07:53:52.228Z,101425.34
2019-03-19T07:56:18.978Z,101431.02
2019-03-19T07:58:45.862Z,101433.04
2019-03-19T08:01:12.462Z,101432.69
2019-03-19T08:03:39.189Z,101438.39
2019-03-19T08:06:05.931Z,101436.09
2019-03-19T08:08:32.655Z,101433.34
2019-03-19T08:10:59.409Z,101444.45
2019-03-19T08:13:26.126Z,101437.45
2019-03-19T08:15:52.870Z,101447.42
2019-03-19T08:18:19.586Z,101445.58
2019-03-19T08:20:46.310Z,101447.69
2019-03-19T08:23:13.054Z,101443.36
2019-03-19T08:25:39.786Z,101448.25
2019-03-19T08:28:06.566Z,101450.50
2019-03-19T08:30:33.278Z,101456.28
2019-03-19T08:33:00.036Z,101453.23
2019-03-19T08:35:26.796Z,101447.33
2019-03-19T08:37:53.517Z,101454.47
2019-03-19T08:40:20.240Z,101456.86
2019-03-19T08:42:46.991Z,101462.59
2019-03-19T08:45:13.746Z,101452.43
2019-03-19T08:47:40.543Z,101453.08
2019-03-19T08:50:09.926Z,101455.59
2019-03-19T08:52:36.703Z,101453.60
2019-03-19T08:55:03.606Z,101453.23
2019-03-19T08:57:30.338Z,101462.93
2019-03-19T08:59:57.236Z,101457.09
2019-03-19T09:02:23.818Z,101443.41
2019-03-19T09:04:50.547Z,101460.65
2019-03-19T09:07:17.324Z,101461.01
2019-03-19T09:09:44.066Z,101462.05
2019-03-19T09:12:10.827Z,101461.14
2019-03-19T09:14:37.550Z,101468.33
2019-03-19T09:17:04.289Z,101467.90
2019-03-19T09:19:31.018Z,101468.50
2019-03-19T09:21:57.758Z,101475.08
2019-03-19T09:24:24.473Z,101468.31
2019-03-19T09:26:51.214Z,101469.77
2019-03-19T09:29:17.955Z,101462.89
2019-03-19T09:31:44.699Z,101464.73
2019-03-19T09:34:11.407Z,101466.98
2019-03-19T09:36:38.134Z,101456.83
2019-03-19T09:39:06.898Z,101467.08
2019-03-19T09:41:33.614Z,101472.64
2019-03-19T09:44:00.359Z,101463.81
2019-03-19T09:46:27.081Z,101477.78
2019-03-19T09:48:53.822Z,101467.95
2019-03-19T09:51:20.531Z,101459.88
2019-03-19T09:53:47.279Z,101466.89
2019-03-19T09:56:14.179Z,101470.44
2019-03-19T09:58:40.967Z,101472.27
2019-03-19T10:01:07.703Z,101466.34
2019-03-19T10:03:34.449Z,101461.94
2019-03-19T10:06:12.632Z,101469.31
2019-03-19T10:08:27.906Z,101465.52
2019-03-19T10:10:54.632Z,101467.26
2019-03-19T10:13:21.392Z,101462.34
2019-03-19T10:15:48.121Z,101460.78
2019-03-19T10:18:14.925Z,101462.09
2019-03-19T10:20:41.610Z,101470.33
2019-03-19T10:23:08.354Z,101466.22
2019-03-19T10:25:35.073Z,101459.47
2019-03-19T10:28:01.840Z,101455.10
2019-03-19T10:30:28.546Z,101452.86
2019-03-19T10:32:55.294Z,101457.28
2019-03-19T10:35:22.016Z,101452.91
2019-03-19T10:37:48.769Z,101449.23
2019-03-19T10:40:15.517Z,101447.42
2019-03-19T10:42:42.262Z,101450.02
2019-03-19T10:45:09.676Z,101453.58
2019-03-19T10:47:36.441Z,101454.53
2019-03-19T10:50:04.894Z,101469.97
2019-03-19T10:52:31.626Z,101458.20
2019-03-19T10:54:58.382Z,101454.27
2019-03-19T10:57:25.113Z,101447.45
2019-03-19T10:59:51.918Z,101448.77
2019-03-19T11:02:18.626Z,101443.36
2019-03-19T11:04:45.399Z,101449.91
2019-03-19T11:07:12.121Z,101440.52
2019-03-19T11:09:38.859Z,101441.72
2019-03-19T11:12:05.593Z,101443.59
2019-03-19T11:14:32.354Z,101440.51
2019-03-19T11:16:59.078Z,101447.98
2019-03-19T11:19:25.835Z,101437.91
2019-03-19T11:21:52.657Z,101430.04
2019-03-19T11:24:19.390Z,101425.30
2019-03-19T11:26:46.110Z,101420.30
2019-03-19T11:29:12.851Z,101422.30
2019-03-19T11:31:39.578Z,101421.31
2019-03-19T11:34:06.325Z,101423.95
2019-03-19T11:36:33.050Z,101424.62
2019-03-19T11:38:59.782Z,101415.97
2019-03-19T11:41:26.557Z,101424.09
2019-03-19T11:43:53.286Z,101424.94
2019-03-19T11:46:20.006Z,101421.72
2019-03-19T11:48:46.750Z,101410.79
2019-03-19T11:51:13.458Z,101416.56
2019-03-19T11:53:40.199Z,101412.34
2019-03-19T11:56:06.914Z,101426.08
2019-03-19T11:58:33.656Z,101433.25
2019-03-19T12:01:00.784Z,101430.12
2019-03-19T12:03:27.398Z,101430.93
2019-03-19T12:05:54.114Z,101432.51
2019-03-19T12:08:20.862Z,101428.16
2019-03-19T12:10:47.583Z,101442.34
2019-03-19T12:13:14.322Z,101445.28
2019-03-19T12:15:41.041Z,101445.92
2019-03-19T12:18:07.782Z,101452.16
2019-03-19T12:20:34.628Z,101452.02
2019-03-19T12:23:01.389Z,101447.08
2019-03-19T12:25:28.128Z,101437.52
2019-03-19T12:27:54.867Z,101437.61
2019-03-19T12:30:23.743Z,101430.85
2019-03-19T12:32:48.336Z,101423.89
2019-03-19T12:35:15.086Z,101418.70
2019-03-19T12:37:41.814Z,101420.34
2019-03-19T12:40:09.963Z,101425.86
2019-03-19T12:42:36.716Z,101421.22
2019-03-19T12:45:04.303Z,101408.41
2019-03-19T12:47:31.162Z,101416.23
2019-03-19T12:49:57.914Z,101418.41
2019-03-19T12:52:24.685Z,101419.90
2019-03-19T12:54:51.455Z,101413.46
2019-03-19T12:57:18.183Z,101412.26
2019-03-19T12:59:45.030Z,101408.03
2019-03-19T13:02:11.744Z,101411.08
2019-03-19T13:04:38.531Z,101409.73
2019-03-19T13:07:05.256Z,101406.66
2019-03-19T13:09:31.994Z,101412.31
2019-03-19T13:11:58.719Z,101413.38
2019-03-19T13:14:25.502Z,101412.13
2019-03-19T13:16:52.302Z,101415.78
2019-03-19T13:19:19.041Z,101427.35
2019-03-19T13:21:45.777Z,101414.17
2019-03-19T13:24:12.502Z,101415.34
2019-03-19T13:26:39.230Z,101417.91
2019-03-19T13:29:05.974Z,101410.84
2019-03-19T13:31:32.698Z,101419.30
2019-03-19T13:33:59.492Z,101405.73
2019-03-19T13:36:26.162Z,101412.63
2019-03-19T13:38:52.911Z,101406.30
2019-03-19T13:41:19.638Z,101403.64
2019-03-19T13:43:46.374Z,101402.47
2019-03-19T13:46:13.114Z,101417.11
2019-03-19T13:48:39.930Z,101407.11
2019-03-19T13:51:06.669Z,101413.59
2019-03-19T13:53:33.429Z,101409.86
2019-03-19T13:56:00.154Z,101412.97
2019-03-19T13:58:27.343Z,101412.69
2019-03-19T14:00:55.804Z,101415.99
2019-03-19T14:03:20.438Z,101416.61
2019-03-19T14:05:47.186Z,101418.87
2019-03-19T14:08:13.918Z,101414.51
2019-03-19T14:10:40.656Z,101409.13
2019-03-19T14:13:07.443Z,101416.25
2019-03-19T14:15:34.155Z,101406.99
2019-03-19T14:18:00.883Z,101405.38
2019-03-19T14:20:27.629Z,101406.05
2019-03-19T14:22:54.374Z,101411.42
2019-03-19T14:25:21.123Z,101407.06
2019-03-19T14:27:47.862Z,101411.82
2019-03-19T14:30:15.401Z,101409.13
2019-03-19T14:32:42.118Z,101412.86
2019-03-19T14:35:08.943Z,101411.12
2019-03-19T14:37:35.678Z,101412.69
2019-03-19T14:40:02.705Z,101418.45
2019-03-19T14:42:29.474Z,101416.86
2019-03-19T14:44:56.297Z,101414.86
2019-03-19T14:47:23.070Z,101414.44
2019-03-19T14:49:50.010Z,101408.66
2019-03-19T14:52:16.627Z,101402.77
2019-03-19T14:54:43.375Z,101401.66
2019-03-19T14:57:10.137Z,101394.45
2019-03-19T14:59:36.867Z,101390.09
2019-03-19T15:02:03.610Z,101394.58
2019-03-19T15:04:30.340Z,101398.23
2019-03-19T15:06:57.090Z,101397.05
2019-03-19T15:09:23.806Z,101393.73
2019-03-19T15:11:50.610Z,101393.61
2019-03-19T15:14:17.350Z,101395.93
2019-03-19T15:16:44.120Z,101402.38
2019-03-19T15:19:10.886Z,101394.20
2019-03-19T15:21:37.663Z,101398.43
2019-03-19T15:24:04.405Z,101402.73
2019-03-19T15:26:31.125Z,101396.98
2019-03-19T15:28:57.979Z,101404.05
2019-03-19T15:31:29.780Z,101404.89
2019-03-19T15:33:51.627Z,101408.91
2019-03-19T15:36:18.362Z,101405.53
2019-03-19T15:38:45.091Z,101405.50
2019-03-19T15:41:11.818Z,101405.52
2019-03-19T15:43:38.674Z,101401.60
2019-03-19T15:46:05.397Z,101404.62
2019-03-19T15:48:32.246Z,101407.67
2019-03-19T15:50:58.983Z,101408.38
2019-03-19T15:53:25.738Z,101414.77
2019-03-19T15:55:52.454Z,101416.47
2019-03-19T15:58:19.215Z,101413.97
2019-03-19T16:00:45.938Z,101413.87
2019-03-19T16:03:12.685Z,101422.89
2019-03-19T16:05:39.414Z,101421.70
2019-03-19T16:08:06.266Z,101417.08
2019-03-19T16:10:32.995Z,101423.02
2019-03-19T16:12:59.729Z,101424.95
2019-03-19T16:15:26.507Z,101439.28
2019-03-19T16:17:53.265Z,101441.53
2019-03-19T16:20:20.010Z,101446.97
2019-03-19T16:22:46.781Z,101450.50
2019-03-19T16:25:13.553Z,101457.27
2019-03-19T16:27:40.384Z,101467.91
2019-03-19T16:30:08.013Z,101473.58
2019-03-19T16:32:34.807Z,101476.19
2019-03-19T16:35:01.651Z,101487.95
2019-03-19T16:37:28.385Z,101495.39
2019-03-19T16:39:55.130Z,101498.00
2019-03-19T16:42:21.874Z,101497.64
2019-03-19T16:44:48.609Z,101503.48
2019-03-19T16:47:15.332Z,101507.10
2019-03-19T16:49:42.075Z,101512.30
2019-03-19T16:52:08.924Z,101520.64
2019-03-19T16:54:35.687Z,101533.84
2019-03-19T16:57:02.441Z,101533.06
2019-03-19T16:59:29.183Z,101530.17
2019-03-19T17:02:01.850Z,101537.92
2019-03-19T17:04:23.153Z,101539.53
2019-03-19T17:06:49.827Z,101551.28
2019-03-19T17:09:17.207Z,101556.02
2019-03-19T17:11:44.943Z,101559.00
2019-03-19T17:14:11.970Z,101559.05
2019-03-19T17:16:38.767Z,101555.80
2019-03-19T17:19:06.090Z,101563.95
2019-03-19T17:21:32.861Z,101565.44
2019-03-19T17:23:59.594Z,101573.59
2019-03-19T17:26:26.313Z,101576.05
2019-03-19T17:28:53.058Z,101573.13
2019-03-19T17:31:19.815Z,101573.83
2019-03-19T17:33:46.553Z,101575.13
2019-03-19T17:36:13.290Z,101579.56
2019-03-19T17:38:40.040Z,101578.91
2019-03-19T17:41:06.761Z,101579.13
2019-03-19T17:43:33.494Z,101582.37
2019-03-19T17:46:00.212Z,101587.58
2019-03-19T17:48:26.942Z,101598.31
2019-03-19T17:50:54.542Z,101595.41
2019-03-19T17:53:21.281Z,101601.33
2019-03-19T17:55:48.066Z,101607.28
2019-03-19T17:58:14.906Z,101613.61
2019-03-19T18:00:42.101Z,101613.14
2019-03-19T18:03:08.830Z,101621.77
2019-03-19T18:05:35.573Z,101627.06
2019-03-19T18:08:02.345Z,101626.41
2019-03-19T18:10:29.086Z,101628.80
2019-03-19T18:12:55.934Z,101631.40
2019-03-19T18:15:22.815Z,101624.73
2019-03-19T18:17:49.622Z,101622.42
2019-03-19T18:20:16.388Z,101619.78
2019-03-19T18:22:43.341Z,101622.11
2019-03-19T18:25:10.107Z,101626.78
2019-03-19T18:27:36.887Z,101634.91
2019-03-19T18:30:04.248Z,101628.80
2019-03-19T18:32:35.034Z,101631.59
2019-03-19T18:34:57.714Z,101638.62
2019-03-19T18:37:24.442Z,101637.50
2019-03-19T18:39:51.182Z,101648.24
2019-03-19T18:42:17.902Z,101651.27
2019-03-19T18:44:44.679Z,101647.93
2019-03-19T18:47:12.273Z,101646.83
2019-03-19T18:49:38.561Z,101651.91
2019-03-19T18:52:05.289Z,101655.91
2019-03-19T18:54:32.042Z,101668.66
2019-03-19T18:56:58.791Z,101660.72
2019-03-19T18:59:25.545Z,101660.86
2019-03-19T19:01:52.294Z,101664.31
2019-03-19T19:04:19.022Z,101658.03
2019-03-19T19:06:45.766Z,101657.06
2019-03-19T19:09:12.486Z,101667.87
2019-03-19T19:11:39.222Z,101679.65
2019-03-19T19:14:05.954Z,101691.95
2019-03-19T19:16:32.711Z,101692.18
2019-03-19T19:18:59.433Z,101685.28
2019-03-19T19:21:26.170Z,101688.73
2019-03-19T19:23:52.886Z,101689.86
2019-03-19T19:26:19.675Z,101689.55
2019-03-19T19:28:46.410Z,101701.28
2019-03-19T19:31:13.163Z,101703.28
2019-03-19T19:33:39.914Z,101703.98
2019-03-19T19:36:06.667Z,101706.38
2019-03-19T19:38:33.394Z,101701.58
2019-03-19T19:41:00.134Z,101705.91
2019-03-19T19:43:26.870Z,101708.14
2019-03-19T19:45:53.733Z,101703.14
2019-03-19T19:48:20.452Z,101707.30
2019-03-19T19:50:47.310Z,101715.14
2019-03-19T19:53:15.828Z,101720.48
2019-03-19T19:55:40.882Z,101709.81
2019-03-19T19:58:07.725Z,101719.11
2019-03-19T20:00:34.470Z,101716.99
2019-03-19T20:03:11.516Z,101717.41
2019-03-19T20:05:28.003Z,101723.20
2019-03-19T20:07:54.725Z,101728.66
2019-03-19T20:10:21.550Z,101726.80
2019-03-19T20:12:48.206Z,101725.11
2019-03-19T20:15:14.947Z,101725.73
2019-03-19T20:17:41.667Z,101732.92
2019-03-19T20:20:10.343Z,101732.03
2019-03-19T20:22:37.068Z,101726.38
2019-03-19T20:25:04.218Z,101727.67
2019-03-19T20:27:31.059Z,101732.25
2019-03-19T20:29:57.879Z,101732.41
2019-03-19T20:32:25.754Z,101735.62
2019-03-19T20:34:53.332Z,101738.03
2019-03-19T20:37:22.140Z,101736.97
2019-03-19T20:39:49.235Z,101740.14
2019-03-19T20:42:16.870Z,101746.46
2019-03-19T20:44:45.725Z,101746.91
2019-03-19T20:47:12.983Z,101742.95
2019-03-19T20:49:47.550Z,101758.41
2019-03-19T20:52:08.045Z,101758.06
2019-03-19T20:54:36.044Z,101760.11
2019-03-19T20:57:03.914Z,101762.23
2019-03-19T20:59:31.901Z,101768.84
2019-03-19T21:01:59.949Z,101772.36
2019-03-19T21:04:31.452Z,101781.96
2019-03-19T21:06:54.978Z,101781.50
2019-03-19T21:09:21.794Z,101782.45
2019-03-19T21:11:48.542Z,101786.05
2019-03-19T21:14:15.268Z,101783.61
2019-03-19T21:16:42.018Z,101797.99
2019-03-19T21:19:08.747Z,101793.22
2019-03-19T21:21:35.496Z,101798.27
2019-03-19T21:24:02.250Z,101800.88
2019-03-19T21:26:29.014Z,101804.92
2019-03-19T21:28:55.785Z,101806.56
2019-03-19T21:31:22.502Z,101812.42
2019-03-19T21:33:51.413Z,101813.00
2019-03-19T21:36:15.970Z,101817.58
2019-03-19T21:38:42.703Z,101816.07
2019-03-19T21:41:09.439Z,101823.70
2019-03-19T21:43:36.193Z,101818.99
2019-03-19T21:46:02.962Z,101816.07
2019-03-19T21:48:29.680Z,101814.41
2019-03-19T21:50:56.415Z,101817.72
2019-03-19T21:53:23.233Z,101808.77
2019-03-19T21:55:49.996Z,101815.45
2019-03-19T21:58:16.741Z,101821.06
2019-03-19T22:00:43.466Z,101823.33
2019-03-19T22:03:10.294Z,101822.16
2019-03-19T22:05:37.025Z,101827.27
2019-03-19T22:08:03.762Z,101835.73
2019-03-19T22:10:30.498Z,101837.60
2019-03-19T22:12:57.254Z,101843.31
2019-03-19T22:15:24.216Z,101844.61
2019-03-19T22:17:50.962Z,101849.12
2019-03-19T22:20:17.697Z,101855.28
2019-03-19T22:22:44.440Z,101849.61
2019-03-19T22:25:11.291Z,101855.80
2019-03-19T22:27:38.041Z,101850.97
2019-03-19T22:30:05.822Z,101856.06
2019-03-19T22:32:32.574Z,101851.14
2019-03-19T22:34:59.296Z,101861.15
2019-03-19T22:37:26.030Z,101862.40
2019-03-19T22:39:52.756Z,101865.97
2019-03-19T22:42:19.490Z,101865.78
2019-03-19T22:44:46.286Z,101865.05
2019-03-19T22:47:13.018Z,101864.40
2019-03-19T22:49:39.737Z,101865.89
2019-03-19T22:52:06.470Z,101859.53
2019-03-19T22:54:33.201Z,101854.66
2019-03-19T22:56:59.945Z,101862.26
2019-03-19T22:59:26.662Z,101869.15
2019-03-19T23:01:53.412Z,101867.28
2019-03-19T23:04:27.146Z,101864.39
2019-03-19T23:06:46.862Z,101861.75
2019-03-19T23:09:13.602Z,101862.02
2019-03-19T23:11:40.334Z,101864.98
2019-03-19T23:14:07.098Z,101864.30
2019-03-19T23:16:33.826Z,101865.73
2019-03-19T23:19:00.552Z,101871.63
2019-03-19T23:21:27.274Z,101868.55
2019-03-19T23:23:54.022Z,101869.27
2019-03-19T23:26:20.754Z,101874.11
2019-03-19T23:28:47.527Z,101876.63
2019-03-19T23:31:14.261Z,101877.70
2019-03-19T23:33:41.022Z,101881.50
2019-03-19T23:36:07.746Z,101885.75
2019-03-19T23:38:34.503Z,101879.94
2019-03-19T23:41:01.218Z,101888.29
2019-03-19T23:43:27.990Z,101896.28
2019-03-19T23:45:54.732Z,101900.02
2019-03-19T23:48:21.493Z,101898.72
2019-03-19T23:50:48.235Z,101899.74
2019-03-19T23:53:14.965Z,101902.50
2019-03-19T23:55:41.714Z,101909.33
2019-03-19T23:58:08.446Z,101907.60
